createdAt,value
2019-01-31T00:00:39.014Z,99160.73
2019-01-31T00:03:30.209Z,99163.11
2019-01-31T00:06:15.724Z,99163.11
2019-01-31T00:09:24.462Z,99154.37
2019-01-31T00:12:36.198Z,99165.83
2019-01-31T00:15:12.776Z,99165.83
2019-01-31T00:18:29.442Z,99158.27
2019-01-31T00:21:42.187Z,99158.27
2019-01-31T00:24:36.340Z,99166.45
2019-01-31T00:27:41.577Z,99173.30
2019-01-31T00:30:27.900Z,99173.30
2019-01-31T00:33:38.255Z,99178.03
2019-01-31T00:36:33.842Z,99167.98
2019-01-31T00:39:50.632Z,99171.16
2019-01-31T00:42:45.745Z,99179.68
2019-01-31T00:46:01.844Z,99182.62
2019-01-31T00:48:53.932Z,99186.88
2019-01-31T00:51:42.490Z,99192.42
2019-01-31T00:54:41.260Z,99198.08
2019-01-31T00:57:58.025Z,99181.66
2019-01-31T01:01:05.531Z,99186.03
2019-01-31T01:04:28.298Z,99189.91
2019-01-31T01:07:35.649Z,99188.02
2019-01-31T01:10:22.071Z,99185.90
2019-01-31T01:13:01.213Z,99192.03
2019-01-31T01:16:00.088Z,99191.56
2019-01-31T01:19:02.251Z,99190.12
2019-01-31T01:22:09.108Z,99194.32
2019-01-31T01:25:09.139Z,99195.13
2019-01-31T01:28:19.279Z,99199.64
2019-01-31T01:31:21.262Z,99192.55
2019-01-31T01:34:29.948Z,99178.96
2019-01-31T01:37:14.197Z,99175.66
2019-01-31T01:40:20.673Z,99180.98
2019-01-31T01:43:06.812Z,99183.10
2019-01-31T01:46:13.690Z,99193.84
2019-01-31T01:49:15.234Z,99196.82
2019-01-31T01:52:17.105Z,99200.00
2019-01-31T01:55:19.207Z,99199.05
2019-01-31T01:58:14.832Z,99201.05
2019-01-31T02:01:10.196Z,99201.49
2019-01-31T02:04:10.932Z,99202.91
2019-01-31T02:07:21.996Z,99205.75
2019-01-31T02:10:48.302Z,99203.98
2019-01-31T02:14:17.446Z,99198.41
2019-01-31T02:17:02.657Z,99193.09
2019-01-31T02:20:05.206Z,99187.67
2019-01-31T02:23:00.517Z,99180.94
2019-01-31T02:26:07.784Z,99171.36
2019-01-31T02:28:54.289Z,99177.51
2019-01-31T02:31:51.480Z,99179.73
2019-01-31T02:35:02.421Z,99178.09
2019-01-31T02:38:11.776Z,99187.30
2019-01-31T02:45:06.273Z,99187.16
2019-01-31T02:48:28.568Z,99187.02
2019-01-31T02:51:34.215Z,99183.53
2019-01-31T02:54:56.049Z,99186.82
2019-01-31T02:58:28.228Z,99180.38
2019-01-31T03:01:25.043Z,99182.62
2019-01-31T03:04:38.133Z,99180.91
2019-01-31T03:07:29.764Z,99182.94
2019-01-31T03:10:40.836Z,99184.42
2019-01-31T03:13:34.310Z,99188.70
2019-01-31T03:16:30.375Z,99184.45
2019-01-31T03:19:23.572Z,99184.53
2019-01-31T03:22:22.445Z,99189.98
2019-01-31T03:25:20.533Z,99187.78
2019-01-31T03:28:27.765Z,99191.72
2019-01-31T03:31:24.518Z,99194.54
2019-01-31T03:34:32.136Z,99193.02
2019-01-31T03:37:12.055Z,99197.25
2019-01-31T03:40:30.107Z,99193.85
2019-01-31T03:43:40.976Z,99198.93
2019-01-31T03:46:41.017Z,99204.28
2019-01-31T03:49:39.051Z,99201.25
2019-01-31T03:53:04.975Z,99204.57
2019-01-31T03:55:57.090Z,99198.48
2019-01-31T03:58:47.204Z,99214.33
2019-01-31T04:01:55.610Z,99204.42
2019-01-31T04:04:31.825Z,99197.11
2019-01-31T04:07:02.321Z,99207.26
2019-01-31T04:09:33.939Z,99213.63
2019-01-31T04:12:04.449Z,99200.69
2019-01-31T04:14:34.854Z,99196.67
2019-01-31T04:17:07.091Z,99201.03
2019-01-31T04:19:37.716Z,99216.16
2019-01-31T04:22:10.881Z,99210.03
2019-01-31T04:24:41.504Z,99209.20
2019-01-31T04:27:14.399Z,99206.27
2019-01-31T04:29:45.785Z,99194.34
2019-01-31T04:32:16.480Z,99200.48
2019-01-31T04:34:47.135Z,99204.48
2019-01-31T04:37:17.753Z,99204.05
2019-01-31T04:39:49.961Z,99197.77
2019-01-31T04:42:20.513Z,99193.97
2019-01-31T04:44:51.059Z,99198.84
2019-01-31T04:47:21.788Z,99203.90
2019-01-31T04:49:52.383Z,99209.91
2019-01-31T04:52:23.278Z,99209.91
2019-01-31T04:54:54.321Z,99219.48
2019-01-31T04:57:38.202Z,99225.84
2019-01-31T05:00:21.868Z,99226.42
2019-01-31T05:02:55.918Z,99228.09
2019-01-31T05:05:30.046Z,99227.62
2019-01-31T05:08:09.689Z,99222.43
2019-01-31T05:10:59.371Z,99223.01
2019-01-31T05:13:43.911Z,99219.73
2019-01-31T05:16:16.403Z,99223.40
2019-01-31T05:19:01.741Z,99232.02
2019-01-31T05:21:28.626Z,99224.70
2019-01-31T05:27:48.060Z,99235.19
2019-01-31T05:30:28.085Z,99235.54
2019-01-31T05:33:33.690Z,99242.03
2019-01-31T05:36:08.919Z,99245.94
2019-01-31T05:38:47.711Z,99251.05
2019-01-31T05:41:24.138Z,99251.28
2019-01-31T05:43:54.629Z,99244.63
2019-01-31T05:46:25.345Z,99246.42
2019-01-31T05:49:01.601Z,99245.02
2019-01-31T05:51:32.164Z,99251.42
2019-01-31T05:54:02.821Z,99248.11
2019-01-31T05:56:33.396Z,99248.45
2019-01-31T05:59:05.865Z,99251.55
2019-01-31T06:01:36.459Z,99258.66
2019-01-31T06:04:08.125Z,99262.76
2019-01-31T06:06:38.588Z,99267.38
2019-01-31T06:09:10.192Z,99270.13
2019-01-31T06:11:40.704Z,99270.92
2019-01-31T06:14:11.179Z,99267.27
2019-01-31T06:16:42.828Z,99267.88
2019-01-31T06:19:13.338Z,99262.23
2019-01-31T06:21:43.804Z,99276.17
2019-01-31T06:24:14.753Z,99276.17
2019-01-31T06:26:45.144Z,99275.25
2019-01-31T06:29:17.456Z,99268.61
2019-01-31T06:31:48.034Z,99268.61
2019-01-31T06:34:18.579Z,99278.81
2019-01-31T06:36:49.113Z,99278.81
2019-01-31T06:39:20.189Z,99276.89
2019-01-31T06:41:50.797Z,99273.70
2019-01-31T06:44:21.283Z,99272.39
2019-01-31T06:46:51.761Z,99279.03
2019-01-31T06:49:22.184Z,99279.03
2019-01-31T06:51:52.682Z,99279.86
2019-01-31T06:54:23.233Z,99279.86
2019-01-31T06:56:53.814Z,99291.33
2019-01-31T06:59:24.368Z,99291.33
2019-01-31T07:01:54.798Z,99290.61
2019-01-31T07:04:25.234Z,99287.44
2019-01-31T07:06:55.690Z,99295.81
2019-01-31T07:09:26.191Z,99287.66
2019-01-31T07:11:56.843Z,99301.26
2019-01-31T07:14:54.492Z,99285.67
2019-01-31T07:17:24.993Z,99285.67
2019-01-31T07:19:56.586Z,99301.86
2019-01-31T07:22:27.288Z,99302.67
2019-01-31T07:24:57.791Z,99302.67
2019-01-31T07:27:28.189Z,99298.63
2019-01-31T07:29:58.599Z,99298.63
2019-01-31T07:32:29.169Z,99293.52
2019-01-31T07:35:00.975Z,99292.32
2019-01-31T07:37:31.534Z,99292.14
2019-01-31T07:40:01.973Z,99299.39
2019-01-31T07:42:32.404Z,99297.69
2019-01-31T07:45:02.959Z,99302.25
2019-01-31T07:47:36.735Z,99305.45
2019-01-31T07:50:35.905Z,99294.22
2019-01-31T07:53:06.369Z,99295.09
2019-01-31T07:55:36.954Z,99285.77
2019-01-31T07:58:07.404Z,99285.97
2019-01-31T08:00:37.879Z,99285.88
2019-01-31T08:03:08.288Z,99277.09
2019-01-31T08:05:39.112Z,99275.84
2019-01-31T08:08:09.671Z,99278.77
2019-01-31T08:10:42.285Z,99276.97
2019-01-31T08:13:12.968Z,99280.98
2019-01-31T08:15:43.378Z,99283.85
2019-01-31T08:18:13.790Z,99302.36
2019-01-31T08:20:44.274Z,99296.62
2019-01-31T08:23:14.732Z,99223.38
2019-01-31T08:25:45.193Z,99294.34
2019-01-31T08:28:16.699Z,99299.14
2019-01-31T08:30:47.222Z,99304.07
2019-01-31T08:33:17.711Z,99302.39
2019-01-31T08:35:48.222Z,99306.22
2019-01-31T08:38:18.743Z,99308.33
2019-01-31T08:40:49.203Z,99315.28
2019-01-31T08:43:20.529Z,99316.41
2019-01-31T08:45:51.154Z,99314.63
2019-01-31T08:48:21.574Z,99318.30
2019-01-31T08:50:52.098Z,99314.50
2019-01-31T08:53:22.550Z,99312.81
2019-01-31T08:55:53.041Z,99307.27
2019-01-31T08:58:23.559Z,99316.00
2019-01-31T09:00:54.607Z,99316.00
2019-01-31T09:03:25.304Z,99315.87
2019-01-31T09:05:55.918Z,99311.42
2019-01-31T09:08:26.275Z,99313.69
2019-01-31T09:10:56.690Z,99317.87
2019-01-31T09:13:29.243Z,99322.01
2019-01-31T09:15:59.602Z,99331.71
2019-01-31T09:18:29.837Z,99317.82
2019-01-31T09:21:15.295Z,99322.87
2019-01-31T09:24:06.046Z,99315.66
2019-01-31T09:27:07.390Z,99316.53
2019-01-31T09:30:00.506Z,99315.60
2019-01-31T09:33:02.387Z,99315.36
2019-01-31T09:36:03.784Z,99310.90
2019-01-31T09:39:49.027Z,99312.95
2019-01-31T09:42:31.043Z,99311.91
2019-01-31T09:49:22.195Z,99320.53
2019-01-31T09:52:48.697Z,99316.25
2019-01-31T09:56:13.057Z,99319.12
2019-01-31T09:58:52.993Z,99323.56
2019-01-31T10:02:25.023Z,99319.33
2019-01-31T10:05:38.822Z,99322.05
2019-01-31T10:08:29.865Z,99319.73
2019-01-31T10:11:51.433Z,99313.77
2019-01-31T10:15:05.493Z,99314.24
2019-01-31T10:18:08.435Z,99321.77
2019-01-31T10:21:21.395Z,99321.13
2019-01-31T10:24:20.302Z,99321.50
2019-01-31T10:27:18.839Z,99329.00
2019-01-31T10:30:19.305Z,99338.95
2019-01-31T10:33:42.670Z,99329.84
2019-01-31T10:36:54.268Z,99328.77
2019-01-31T10:39:54.282Z,99326.22
2019-01-31T10:42:50.504Z,99319.73
2019-01-31T10:46:01.899Z,99313.13
2019-01-31T10:49:08.299Z,99313.30
2019-01-31T10:52:38.114Z,99310.68
2019-01-31T10:55:56.781Z,99314.77
2019-01-31T10:58:53.884Z,99306.46
2019-01-31T11:02:00.218Z,99297.69
2019-01-31T11:04:58.546Z,99276.40
2019-01-31T11:08:21.465Z,99262.10
2019-01-31T11:11:27.016Z,99256.94
2019-01-31T11:14:24.632Z,99268.33
2019-01-31T11:17:33.897Z,99266.65
2019-01-31T11:21:15.489Z,99267.34
2019-01-31T11:24:14.284Z,99268.89
2019-01-31T11:27:37.244Z,99271.77
2019-01-31T11:30:32.588Z,99266.48
2019-01-31T11:33:35.189Z,99269.89
2019-01-31T11:36:38.366Z,99274.10
2019-01-31T11:39:49.555Z,99281.24
2019-01-31T11:43:12.469Z,99275.02
2019-01-31T11:46:09.285Z,99276.73
2019-01-31T11:48:57.485Z,99271.75
2019-01-31T11:52:02.932Z,99263.56
2019-01-31T11:55:03.161Z,99272.94
2019-01-31T11:58:29.090Z,99266.78
2019-01-31T12:00:59.465Z,99260.11
2019-01-31T12:03:30.138Z,99267.56
2019-01-31T12:06:00.841Z,99270.11
2019-01-31T12:08:31.763Z,99263.97
2019-01-31T12:11:03.611Z,99267.69
2019-01-31T12:13:33.800Z,99267.41
2019-01-31T12:16:05.363Z,99265.06
2019-01-31T12:18:36.218Z,99252.37
2019-01-31T12:21:08.365Z,99243.83
2019-01-31T12:23:38.914Z,99243.92
2019-01-31T12:26:09.158Z,99243.71
2019-01-31T12:28:39.517Z,99241.03
2019-01-31T12:31:10.599Z,99235.25
2019-01-31T12:33:41.052Z,99228.06
2019-01-31T12:36:14.209Z,99256.44
2019-01-31T12:38:45.484Z,99256.44
2019-01-31T12:41:15.912Z,99249.85
2019-01-31T12:43:57.526Z,99249.85
2019-01-31T12:46:28.446Z,99249.52
2019-01-31T12:48:59.236Z,99253.87
2019-01-31T12:51:29.849Z,99264.39
2019-01-31T12:54:00.379Z,99261.94
2019-01-31T12:56:30.981Z,99255.27
2019-01-31T12:59:01.387Z,99254.70
2019-01-31T13:01:31.834Z,99250.89
2019-01-31T13:04:02.302Z,99246.10
2019-01-31T13:06:32.792Z,99252.06
2019-01-31T13:09:04.796Z,99253.09
2019-01-31T13:11:35.411Z,99256.28
2019-01-31T13:14:06.028Z,99256.81
2019-01-31T13:16:37.871Z,99254.70
2019-01-31T13:19:08.509Z,99250.19
2019-01-31T13:21:39.085Z,99254.47
2019-01-31T13:24:28.684Z,99258.55
2019-01-31T13:26:59.091Z,99255.22
2019-01-31T13:29:29.647Z,99252.86
2019-01-31T13:32:00.104Z,99251.48
2019-01-31T13:34:30.353Z,99247.20
2019-01-31T13:37:02.168Z,99243.83
2019-01-31T13:39:33.527Z,99240.80
2019-01-31T13:42:03.978Z,99232.88
2019-01-31T13:44:34.655Z,99231.47
2019-01-31T13:47:05.319Z,99229.05
2019-01-31T13:49:36.051Z,99232.37
2019-01-31T13:52:06.825Z,99232.23
2019-01-31T13:54:37.271Z,99238.79
2019-01-31T13:57:07.749Z,99242.86
2019-01-31T13:59:38.912Z,99249.20
2019-01-31T14:02:10.021Z,99246.86
2019-01-31T14:04:40.350Z,99239.55
2019-01-31T14:07:10.606Z,99239.68
2019-01-31T14:09:41.831Z,99228.02
2019-01-31T14:12:12.367Z,99228.02
2019-01-31T14:14:42.628Z,99229.39
2019-01-31T14:17:13.222Z,99229.39
2019-01-31T14:19:43.539Z,99220.84
2019-01-31T14:22:13.927Z,99220.59
2019-01-31T14:24:44.322Z,99221.31
2019-01-31T14:27:15.641Z,99221.31
2019-01-31T14:29:47.029Z,99220.27
2019-01-31T14:32:18.967Z,99232.77
2019-01-31T14:34:49.779Z,99231.95
2019-01-31T14:37:20.867Z,99228.41
2019-01-31T14:39:52.389Z,99226.48
2019-01-31T14:42:24.269Z,99226.48
2019-01-31T14:44:54.781Z,99213.83
2019-01-31T14:47:25.317Z,99216.31
2019-01-31T14:49:55.750Z,99201.90
2019-01-31T14:52:26.163Z,99201.90
2019-01-31T14:54:56.659Z,99201.53
2019-01-31T14:57:27.345Z,99201.53
2019-01-31T14:59:58.025Z,99204.89
2019-01-31T15:02:28.616Z,99204.89
2019-01-31T15:04:59.018Z,99203.46
2019-01-31T15:07:29.411Z,99208.92
2019-01-31T15:10:00.328Z,99205.27
2019-01-31T15:12:30.874Z,99209.27
2019-01-31T15:15:01.835Z,99201.23
2019-01-31T15:17:32.495Z,99201.23
2019-01-31T15:20:03.245Z,99204.55
2019-01-31T15:22:33.841Z,99207.87
2019-01-31T15:25:04.588Z,99213.42
2019-01-31T15:27:35.170Z,99218.32
2019-01-31T15:30:07.936Z,99218.32
2019-01-31T15:32:38.557Z,99229.08
2019-01-31T15:35:09.621Z,99224.11
2019-01-31T15:37:40.197Z,99220.33
2019-01-31T15:40:15.982Z,99211.09
2019-01-31T15:42:48.955Z,99217.50
2019-01-31T15:45:18.824Z,99229.59
2019-01-31T15:47:49.665Z,99222.13
2019-01-31T15:50:20.541Z,99231.58
2019-01-31T15:52:51.358Z,99231.58
2019-01-31T15:55:23.104Z,99226.63
2019-01-31T15:57:53.595Z,99227.55
2019-01-31T16:00:38.326Z,99231.92
2019-01-31T16:03:10.412Z,99233.59
2019-01-31T16:05:41.637Z,99227.09
2019-01-31T16:08:13.083Z,99236.67
2019-01-31T16:10:45.126Z,99241.98
2019-01-31T16:13:16.460Z,99241.16
2019-01-31T16:15:47.665Z,99251.70
2019-01-31T16:18:18.921Z,99251.70
2019-01-31T16:20:49.564Z,99249.31
2019-01-31T16:23:20.340Z,99241.84
2019-01-31T16:25:51.480Z,99234.66
2019-01-31T16:28:34.171Z,99234.66
2019-01-31T16:31:05.364Z,99248.98
2019-01-31T16:33:36.249Z,99251.30
2019-01-31T16:36:07.465Z,99247.30
2019-01-31T16:38:38.881Z,99248.73
2019-01-31T16:41:10.693Z,99248.73
2019-01-31T16:43:47.097Z,99248.11
2019-01-31T16:46:18.228Z,99241.73
2019-01-31T16:48:49.699Z,99245.51
2019-01-31T16:51:20.652Z,99245.51
2019-01-31T16:53:52.141Z,99247.02
2019-01-31T16:56:22.704Z,99250.81
2019-01-31T16:58:53.614Z,99249.84
2019-01-31T17:01:24.366Z,99249.84
2019-01-31T17:03:56.410Z,99252.58
2019-01-31T17:06:27.030Z,99255.64
2019-01-31T17:08:58.181Z,99255.64
2019-01-31T17:11:29.106Z,99258.38
2019-01-31T17:13:59.827Z,99259.68
2019-01-31T17:16:30.525Z,99259.68
2019-01-31T17:19:01.322Z,99268.11
2019-01-31T17:21:31.991Z,99268.11
2019-01-31T17:24:02.471Z,99265.05
2019-01-31T17:26:33.371Z,99275.34
2019-01-31T17:29:04.131Z,99275.34
2019-01-31T17:31:35.896Z,99277.94
2019-01-31T17:34:08.378Z,99275.58
2019-01-31T17:36:39.099Z,99280.69
2019-01-31T17:39:11.471Z,99284.93
2019-01-31T17:41:43.440Z,99284.93
2019-01-31T17:44:14.110Z,99285.42
2019-01-31T17:46:45.040Z,99290.49
2019-01-31T17:49:15.703Z,99299.61
2019-01-31T17:51:47.821Z,99299.61
2019-01-31T17:54:20.177Z,99296.53
2019-01-31T17:56:51.177Z,99280.32
2019-01-31T17:59:22.303Z,99288.97
2019-01-31T18:01:55.399Z,99285.20
2019-01-31T18:04:25.910Z,99285.20
2019-01-31T18:06:56.811Z,99285.88
2019-01-31T18:09:27.816Z,99296.66
2019-01-31T18:11:58.887Z,99295.70
2019-01-31T18:14:29.405Z,99294.64
2019-01-31T18:17:00.034Z,99286.97
2019-01-31T18:19:30.837Z,99290.88
2019-01-31T18:22:01.793Z,99286.36
2019-01-31T18:24:32.566Z,99288.62
2019-01-31T18:27:04.362Z,99289.41
2019-01-31T18:29:36.515Z,99289.41
2019-01-31T18:32:07.465Z,99292.97
2019-01-31T18:34:37.933Z,99292.97
2019-01-31T18:37:08.436Z,99278.16
2019-01-31T18:39:39.082Z,99278.16
2019-01-31T18:42:10.769Z,99275.80
2019-01-31T18:44:43.675Z,99275.80
2019-01-31T18:47:13.483Z,99279.58
2019-01-31T18:49:45.079Z,99279.58
2019-01-31T18:52:16.915Z,99299.36
2019-01-31T18:54:47.900Z,99309.53
2019-01-31T18:57:19.060Z,99309.53
2019-01-31T18:59:49.938Z,99311.57
2019-01-31T19:02:20.837Z,99324.70
2019-01-31T19:04:51.925Z,99324.70
2019-01-31T19:07:23.006Z,99341.36
2019-01-31T19:09:55.301Z,99343.61
2019-01-31T19:12:26.591Z,99343.61
2019-01-31T19:14:57.364Z,99338.27
2019-01-31T19:17:27.936Z,99347.09
2019-01-31T19:19:59.939Z,99347.56
2019-01-31T19:22:30.740Z,99343.86
2019-01-31T19:25:01.285Z,99349.06
2019-01-31T19:27:33.353Z,99345.28
2019-01-31T19:30:05.370Z,99345.28
2019-01-31T19:32:38.290Z,99350.83
2019-01-31T19:35:10.993Z,99347.42
2019-01-31T19:37:41.716Z,99353.23
2019-01-31T19:40:14.782Z,99349.55
2019-01-31T19:42:47.018Z,99351.92
2019-01-31T19:45:23.135Z,99351.92
2019-01-31T19:47:55.169Z,99351.78
2019-01-31T19:50:27.602Z,99348.80
2019-01-31T19:52:58.465Z,99347.97
2019-01-31T19:55:29.101Z,99346.78
2019-01-31T19:57:59.659Z,99349.61
2019-01-31T20:00:30.548Z,99348.05
2019-01-31T20:03:03.281Z,99348.89
2019-01-31T20:05:35.723Z,99346.89
2019-01-31T20:08:07.873Z,99340.94
2019-01-31T20:10:41.375Z,99343.66
2019-01-31T20:13:12.673Z,99343.16
2019-01-31T20:15:44.122Z,99336.54
2019-01-31T20:18:16.346Z,99339.17
2019-01-31T20:20:47.447Z,99340.25
2019-01-31T20:23:18.709Z,99342.84
2019-01-31T20:25:49.906Z,99343.16
2019-01-31T20:28:20.871Z,99343.00
2019-01-31T20:30:51.833Z,99346.17
2019-01-31T20:33:22.586Z,99344.21
2019-01-31T20:35:53.475Z,99345.63
2019-01-31T20:38:25.033Z,99345.36
2019-01-31T20:40:56.177Z,99347.32
2019-01-31T20:43:28.173Z,99347.97
2019-01-31T20:45:59.044Z,99348.20
2019-01-31T20:48:29.862Z,99350.80
2019-01-31T20:51:00.514Z,99354.66
2019-01-31T20:53:31.012Z,99353.59
2019-01-31T20:56:02.415Z,99349.34
2019-01-31T20:58:34.697Z,99348.28
2019-01-31T21:01:06.054Z,99350.30
2019-01-31T21:03:38.449Z,99355.05
2019-01-31T21:06:09.891Z,99351.83
2019-01-31T21:08:40.443Z,99349.95
2019-01-31T21:11:11.258Z,99351.83
2019-01-31T21:13:42.059Z,99349.46
2019-01-31T21:16:12.705Z,99358.91
2019-01-31T21:18:43.658Z,99354.58
2019-01-31T21:21:14.570Z,99356.61
2019-01-31T21:23:45.915Z,99361.50
2019-01-31T21:26:17.139Z,99364.33
2019-01-31T21:28:48.575Z,99358.78
2019-01-31T21:31:19.772Z,99360.91
2019-01-31T21:33:50.835Z,99356.62
2019-01-31T21:36:21.925Z,99359.60
2019-01-31T21:38:52.623Z,99357.65
2019-01-31T21:41:25.043Z,99356.05
2019-01-31T21:43:57.408Z,99365.94
2019-01-31T21:46:28.109Z,99369.80
2019-01-31T21:48:58.919Z,99366.74
2019-01-31T21:51:31.124Z,99367.59
2019-01-31T21:54:01.909Z,99368.78
2019-01-31T21:56:34.157Z,99377.13
2019-01-31T21:59:04.961Z,99375.84
2019-01-31T22:01:35.778Z,99383.56
2019-01-31T22:04:06.894Z,99382.45
2019-01-31T22:06:37.535Z,99381.38
2019-01-31T22:09:11.088Z,99378.34
2019-01-31T22:11:41.755Z,99377.45
2019-01-31T22:14:12.081Z,99380.48
2019-01-31T22:16:44.060Z,99380.95
2019-01-31T22:19:14.781Z,99377.48
2019-01-31T22:21:45.853Z,99379.25
2019-01-31T22:24:17.855Z,99385.58
2019-01-31T22:26:48.702Z,99381.34
2019-01-31T22:29:19.349Z,99386.26
2019-01-31T22:31:50.463Z,99388.79
2019-01-31T22:34:21.804Z,99388.64
2019-01-31T22:36:52.775Z,99387.41
2019-01-31T22:39:23.431Z,99390.73
2019-01-31T22:41:54.511Z,99392.69
2019-01-31T22:44:26.304Z,99398.16
2019-01-31T22:46:57.387Z,99399.86
2019-01-31T22:49:28.104Z,99400.19
2019-01-31T22:51:59.453Z,99401.99
2019-01-31T22:54:30.745Z,99406.45
2019-01-31T22:57:01.265Z,99413.57
2019-01-31T22:59:31.648Z,99410.08
2019-01-31T23:02:09.248Z,99410.68
2019-01-31T23:04:40.176Z,99406.23
2019-01-31T23:07:10.927Z,99401.16
2019-01-31T23:09:41.789Z,99398.61
2019-01-31T23:12:12.604Z,99393.32
2019-01-31T23:14:43.275Z,99402.35
2019-01-31T23:17:14.422Z,99401.86
2019-01-31T23:19:45.509Z,99408.84
2019-01-31T23:22:16.367Z,99415.25
2019-01-31T23:24:48.338Z,99422.14
2019-01-31T23:27:19.356Z,99420.05
2019-01-31T23:29:50.277Z,99420.86
2019-01-31T23:32:21.198Z,99423.39
2019-01-31T23:34:51.836Z,99419.42
2019-01-31T23:37:24.000Z,99427.72
2019-01-31T23:39:55.292Z,99423.22
2019-01-31T23:42:26.015Z,99426.77
2019-01-31T23:44:58.688Z,99429.02
2019-01-31T23:47:29.981Z,99425.47
2019-01-31T23:49:58.129Z,99435.22
2019-01-31T23:52:28.472Z,99434.23
2019-01-31T23:54:59.427Z,99438.17
2019-01-31T23:57:30.103Z,99445.47
